createdAt,value
2019-05-30T00:00:44.166Z,1005.90
2019-05-30T00:01:44.157Z,1005.92
2019-05-30T00:02:44.152Z,1005.89
2019-05-30T00:03:44.179Z,1005.86
2019-05-30T00:04:44.132Z,1005.88
2019-05-30T00:05:44.123Z,1005.89
2019-05-30T00:06:44.124Z,1005.90
2019-05-30T00:07:44.106Z,1005.89
2019-05-30T00:08:44.099Z,1005.85
2019-05-30T00:09:44.117Z,1005.88
2019-05-30T00:10:44.083Z,1005.90
2019-05-30T00:11:44.072Z,1005.89
2019-05-30T00:12:44.063Z,1005.92
2019-05-30T00:13:44.055Z,1005.89
2019-05-30T00:14:44.052Z,1005.91
2019-05-30T00:15:44.038Z,1005.91
2019-05-30T00:16:44.030Z,1005.87
2019-05-30T00:17:44.021Z,1005.91
2019-05-30T00:18:44.013Z,1005.85
2019-05-30T00:19:44.105Z,1005.90
2019-05-30T00:20:43.995Z,1005.87
2019-05-30T00:21:43.987Z,1005.86
2019-05-30T00:22:43.978Z,1005.87
2019-05-30T00:23:43.969Z,1005.85
2019-05-30T00:24:43.960Z,1005.82
2019-05-30T00:25:43.952Z,1005.78
2019-05-30T00:26:43.944Z,1005.77
2019-05-30T00:27:43.936Z,1005.78
2019-05-30T00:28:43.927Z,1005.80
2019-05-30T00:29:43.918Z,1005.80
2019-05-30T00:30:43.909Z,1005.79
2019-05-30T00:31:43.900Z,1005.76
2019-05-30T00:32:43.891Z,1005.80
2019-05-30T00:33:43.883Z,1005.79
2019-05-30T00:34:43.875Z,1005.83
2019-05-30T00:35:43.867Z,1005.82
2019-05-30T00:36:43.857Z,1005.83
2019-05-30T00:37:43.849Z,1005.86
2019-05-30T00:38:43.841Z,1005.83
2019-05-30T00:39:43.836Z,1005.84
2019-05-30T00:40:43.823Z,1005.86
2019-05-30T00:41:43.816Z,1005.85
2019-05-30T00:42:43.806Z,1005.84
2019-05-30T00:43:43.798Z,1005.87
2019-05-30T00:44:43.789Z,1005.89
2019-05-30T00:45:43.780Z,1005.84
2019-05-30T00:46:43.821Z,1005.83
2019-05-30T00:47:43.764Z,1005.82
2019-05-30T00:48:43.754Z,1005.81
2019-05-30T00:49:43.747Z,1005.77
2019-05-30T00:50:43.739Z,1005.79
2019-05-30T00:51:43.730Z,1005.77
2019-05-30T00:52:43.720Z,1005.73
2019-05-30T00:53:43.715Z,1005.75
2019-05-30T00:54:43.705Z,1005.75
2019-05-30T00:55:43.701Z,1005.77
2019-05-30T00:56:43.686Z,1005.77
2019-05-30T00:57:43.685Z,1005.76
2019-05-30T00:58:43.670Z,1005.73
2019-05-30T00:59:43.662Z,1005.75
2019-05-30T01:00:44.306Z,1005.75
2019-05-30T01:01:43.646Z,1005.72
2019-05-30T01:02:43.650Z,1005.72
2019-05-30T01:03:43.627Z,1005.75
2019-05-30T01:04:43.623Z,1005.73
2019-05-30T01:05:43.610Z,1005.71
2019-05-30T01:06:43.605Z,1005.72
2019-05-30T01:07:43.594Z,1005.71
2019-05-30T01:08:43.589Z,1005.70
2019-05-30T01:09:43.576Z,1005.68
2019-05-30T01:10:43.573Z,1005.67
2019-05-30T01:11:43.560Z,1005.64
2019-05-30T01:12:43.553Z,1005.68
2019-05-30T01:13:43.542Z,1005.65
2019-05-30T01:14:43.544Z,1005.64
2019-05-30T01:15:43.526Z,1005.65
2019-05-30T01:16:43.516Z,1005.63
2019-05-30T01:17:43.509Z,1005.63
2019-05-30T01:18:43.499Z,1005.63
2019-05-30T01:19:43.491Z,1005.65
2019-05-30T01:20:43.481Z,1005.63
2019-05-30T01:21:43.473Z,1005.59
2019-05-30T01:22:43.470Z,1005.61
2019-05-30T01:23:43.456Z,1005.60
2019-05-30T01:24:43.452Z,1005.63
2019-05-30T01:25:43.438Z,1005.62
2019-05-30T01:26:43.435Z,1005.57
2019-05-30T01:27:43.422Z,1005.60
2019-05-30T01:28:43.414Z,1005.58
2019-05-30T01:29:43.412Z,1005.61
2019-05-30T01:30:58.905Z,1005.59
2019-05-30T01:31:43.387Z,1005.61
2019-05-30T01:32:43.378Z,1005.59
2019-05-30T01:33:43.369Z,1005.54
2019-05-30T01:34:43.367Z,1005.61
2019-05-30T01:35:43.354Z,1005.59
2019-05-30T01:36:43.343Z,1005.58
2019-05-30T01:37:43.338Z,1005.56
2019-05-30T01:38:43.326Z,1005.58
2019-05-30T01:39:43.318Z,1005.55
2019-05-30T01:40:43.309Z,1005.59
2019-05-30T01:41:43.301Z,1005.56
2019-05-30T01:42:43.293Z,1005.54
2019-05-30T01:43:43.283Z,1005.54
2019-05-30T01:44:43.275Z,1005.53
2019-05-30T01:45:43.267Z,1005.56
2019-05-30T01:46:43.261Z,1005.52
2019-05-30T01:47:43.249Z,1005.53
2019-05-30T01:48:43.241Z,1005.51
2019-05-30T01:49:43.234Z,1005.54
2019-05-30T01:50:43.226Z,1005.52
2019-05-30T01:51:43.229Z,1005.52
2019-05-30T01:52:43.212Z,1005.52
2019-05-30T01:53:43.200Z,1005.52
2019-05-30T01:54:43.190Z,1005.54
2019-05-30T01:55:43.186Z,1005.52
2019-05-30T01:56:43.172Z,1005.51
2019-05-30T01:57:43.170Z,1005.51
2019-05-30T01:58:43.157Z,1005.50
2019-05-30T01:59:43.147Z,1005.48
2019-05-30T02:00:43.144Z,1005.45
2019-05-30T02:01:43.132Z,1005.43
2019-05-30T02:02:43.122Z,1005.46
2019-05-30T02:03:43.114Z,1005.48
2019-05-30T02:04:43.104Z,1005.48
2019-05-30T02:05:43.096Z,1005.45
2019-05-30T02:06:43.089Z,1005.45
2019-05-30T02:07:43.080Z,1005.48
2019-05-30T02:08:43.073Z,1005.42
2019-05-30T02:09:43.063Z,1005.44
2019-05-30T02:10:43.055Z,1005.45
2019-05-30T02:11:43.047Z,1005.42
2019-05-30T02:12:43.037Z,1005.40
2019-05-30T02:13:43.031Z,1005.41
2019-05-30T02:14:43.021Z,1005.41
2019-05-30T02:15:43.014Z,1005.42
2019-05-30T02:16:43.004Z,1005.39
2019-05-30T02:17:42.996Z,1005.35
2019-05-30T02:18:42.987Z,1005.35
2019-05-30T02:19:42.985Z,1005.36
2019-05-30T02:20:42.969Z,1005.36
2019-05-30T02:21:42.968Z,1005.39
2019-05-30T02:22:42.955Z,1005.41
2019-05-30T02:23:42.978Z,1005.35
2019-05-30T02:24:42.936Z,1005.35
2019-05-30T02:25:42.927Z,1005.38
2019-05-30T02:26:42.919Z,1005.37
2019-05-30T02:27:42.911Z,1005.35
2019-05-30T02:28:42.902Z,1005.38
2019-05-30T02:29:42.894Z,1005.37
2019-05-30T02:30:42.886Z,1005.36
2019-05-30T02:31:42.878Z,1005.37
2019-05-30T02:32:42.875Z,1005.35
2019-05-30T02:33:42.866Z,1005.40
2019-05-30T02:34:42.852Z,1005.41
2019-05-30T02:35:42.845Z,1005.39
2019-05-30T02:36:42.835Z,1005.40
2019-05-30T02:37:42.836Z,1005.40
2019-05-30T02:38:42.818Z,1005.39
2019-05-30T02:39:42.827Z,1005.41
2019-05-30T02:40:42.807Z,1005.37
2019-05-30T02:41:42.800Z,1005.40
2019-05-30T02:42:42.791Z,1005.42
2019-05-30T02:43:42.787Z,1005.40
2019-05-30T02:44:42.766Z,1005.38
2019-05-30T02:45:42.761Z,1005.42
2019-05-30T02:46:42.753Z,1005.42
2019-05-30T02:47:42.743Z,1005.43
2019-05-30T02:48:58.273Z,1005.45
2019-05-30T02:49:42.724Z,1005.42
2019-05-30T02:50:42.726Z,1005.43
2019-05-30T02:51:42.717Z,1005.46
2019-05-30T02:52:42.707Z,1005.40
2019-05-30T02:53:42.691Z,1005.42
2019-05-30T02:54:42.682Z,1005.44
2019-05-30T02:55:42.677Z,1005.41
2019-05-30T02:56:42.665Z,1005.47
2019-05-30T02:57:42.661Z,1005.44
2019-05-30T02:58:42.649Z,1005.46
2019-05-30T02:59:42.641Z,1005.47
2019-05-30T03:00:42.632Z,1005.45
2019-05-30T03:01:58.794Z,1005.51
2019-05-30T03:02:42.616Z,1005.48
2019-05-30T03:03:42.611Z,1005.46
2019-05-30T03:04:42.597Z,1005.52
2019-05-30T03:05:42.587Z,1005.49
2019-05-30T03:06:42.592Z,1005.48
2019-05-30T03:07:42.572Z,1005.49
2019-05-30T03:08:42.561Z,1005.50
2019-05-30T03:09:42.553Z,1005.52
2019-05-30T03:10:42.545Z,1005.56
2019-05-30T03:11:42.542Z,1005.56
2019-05-30T03:12:42.527Z,1005.58
2019-05-30T03:13:42.518Z,1005.54
2019-05-30T03:14:42.512Z,1005.57
2019-05-30T03:15:42.508Z,1005.56
2019-05-30T03:16:42.496Z,1005.54
2019-05-30T03:17:42.486Z,1005.56
2019-05-30T03:18:42.489Z,1005.54
2019-05-30T03:19:42.469Z,1005.58
2019-05-30T03:20:42.458Z,1005.56
2019-05-30T03:21:42.448Z,1005.55
2019-05-30T03:22:42.441Z,1005.56
2019-05-30T03:23:42.448Z,1005.54
2019-05-30T03:24:42.423Z,1005.53
2019-05-30T03:25:42.416Z,1005.53
2019-05-30T03:26:42.404Z,1005.51
2019-05-30T03:27:42.398Z,1005.49
2019-05-30T03:28:42.391Z,1005.54
2019-05-30T03:29:42.380Z,1005.52
2019-05-30T03:30:42.375Z,1005.55
2019-05-30T03:31:42.362Z,1005.57
2019-05-30T03:33:43.192Z,1005.53
2019-05-30T03:34:42.364Z,1005.57
2019-05-30T03:35:44.185Z,1005.59
2019-05-30T03:36:42.317Z,1005.60
2019-05-30T03:37:42.309Z,1005.58
2019-05-30T03:38:42.299Z,1005.65
2019-05-30T03:39:42.291Z,1005.66
2019-05-30T03:40:42.282Z,1005.63
2019-05-30T03:41:42.297Z,1005.67
2019-05-30T03:42:42.264Z,1005.64
2019-05-30T03:43:42.255Z,1005.64
2019-05-30T03:44:42.250Z,1005.66
2019-05-30T03:45:42.245Z,1005.68
2019-05-30T03:46:42.228Z,1005.67
2019-05-30T03:47:42.219Z,1005.64
2019-05-30T03:48:42.211Z,1005.65
2019-05-30T03:49:42.209Z,1005.64
2019-05-30T03:50:42.194Z,1005.70
2019-05-30T03:51:42.185Z,1005.69
2019-05-30T03:52:42.175Z,1005.63
2019-05-30T03:53:42.168Z,1005.67
2019-05-30T03:54:42.157Z,1005.71
2019-05-30T03:55:42.147Z,1005.73
2019-05-30T03:56:42.139Z,1005.72
2019-05-30T03:57:42.132Z,1005.70
2019-05-30T03:58:42.123Z,1005.74
2019-05-30T03:59:42.112Z,1005.73
2019-05-30T04:00:42.105Z,1005.73
2019-05-30T04:01:42.094Z,1005.72
2019-05-30T04:02:56.331Z,1005.76
2019-05-30T04:03:42.090Z,1005.75
2019-05-30T04:04:42.070Z,1005.75
2019-05-30T04:05:42.062Z,1005.73
2019-05-30T04:06:42.052Z,1005.75
2019-05-30T04:07:42.042Z,1005.78
2019-05-30T04:08:42.031Z,1005.72
2019-05-30T04:09:42.021Z,1005.74
2019-05-30T04:10:42.014Z,1005.75
2019-05-30T04:11:42.007Z,1005.72
2019-05-30T04:12:41.996Z,1005.70
2019-05-30T04:13:41.993Z,1005.70
2019-05-30T04:14:41.978Z,1005.70
2019-05-30T04:15:41.968Z,1005.75
2019-05-30T04:16:41.968Z,1005.75
2019-05-30T04:17:41.950Z,1005.77
2019-05-30T04:18:41.942Z,1005.75
2019-05-30T04:19:41.933Z,1005.76
2019-05-30T04:20:41.923Z,1005.75
2019-05-30T04:21:41.914Z,1005.76
2019-05-30T04:22:41.906Z,1005.78
2019-05-30T04:23:41.898Z,1005.78
2019-05-30T04:24:41.888Z,1005.83
2019-05-30T04:25:41.879Z,1005.84
2019-05-30T04:26:41.870Z,1005.79
2019-05-30T04:27:41.860Z,1005.83
2019-05-30T04:28:41.851Z,1005.82
2019-05-30T04:29:41.842Z,1005.82
2019-05-30T04:30:41.833Z,1005.81
2019-05-30T04:31:41.824Z,1005.80
2019-05-30T04:32:41.817Z,1005.79
2019-05-30T04:33:41.846Z,1005.82
2019-05-30T04:34:41.797Z,1005.81
2019-05-30T04:35:41.794Z,1005.79
2019-05-30T04:36:41.784Z,1005.81
2019-05-30T04:37:41.771Z,1005.84
2019-05-30T04:38:41.769Z,1005.82
2019-05-30T04:39:41.754Z,1005.81
2019-05-30T04:40:41.744Z,1005.79
2019-05-30T04:41:41.735Z,1005.85
2019-05-30T04:42:41.726Z,1005.85
2019-05-30T04:43:41.723Z,1005.82
2019-05-30T04:44:41.727Z,1005.86
2019-05-30T04:45:41.703Z,1005.77
2019-05-30T04:46:41.692Z,1005.84
2019-05-30T04:47:41.685Z,1005.82
2019-05-30T04:48:41.675Z,1005.79
2019-05-30T04:49:41.667Z,1005.87
2019-05-30T04:50:41.655Z,1005.89
2019-05-30T04:51:41.648Z,1005.84
2019-05-30T04:52:41.640Z,1005.86
2019-05-30T04:53:41.628Z,1005.92
2019-05-30T04:54:41.619Z,1005.89
2019-05-30T04:55:41.610Z,1005.88
2019-05-30T04:56:41.602Z,1005.92
2019-05-30T04:57:41.593Z,1005.90
2019-05-30T04:58:42.740Z,1005.95
2019-05-30T04:59:41.574Z,1005.98
2019-05-30T05:00:41.566Z,1005.88
2019-05-30T05:01:41.557Z,1005.93
2019-05-30T05:02:41.547Z,1005.97
2019-05-30T05:03:45.795Z,1005.99
2019-05-30T05:04:41.530Z,1006.01
2019-05-30T05:05:41.520Z,1005.98
2019-05-30T05:06:41.520Z,1006.00
2019-05-30T05:07:41.504Z,1005.99
2019-05-30T05:08:41.494Z,1006.00
2019-05-30T05:09:41.486Z,1006.01
2019-05-30T05:10:41.476Z,1006.04
2019-05-30T05:11:41.469Z,1006.02
2019-05-30T05:12:41.508Z,1006.09
2019-05-30T05:13:41.449Z,1006.08
2019-05-30T05:14:41.441Z,1006.08
2019-05-30T05:15:41.433Z,1006.07
2019-05-30T05:16:41.423Z,1006.10
2019-05-30T05:17:41.415Z,1006.07
2019-05-30T05:18:41.408Z,1006.00
2019-05-30T05:19:41.397Z,1006.03
2019-05-30T05:20:41.392Z,1005.95
2019-05-30T05:21:41.380Z,1006.03
2019-05-30T05:22:41.372Z,1005.98
2019-05-30T05:23:41.363Z,1006.00
2019-05-30T05:24:41.352Z,1005.96
2019-05-30T05:25:41.343Z,1005.99
2019-05-30T05:26:41.335Z,1005.97
2019-05-30T05:27:41.327Z,1005.97
2019-05-30T05:28:41.319Z,1005.96
2019-05-30T05:29:41.328Z,1005.99
2019-05-30T05:30:41.299Z,1005.90
2019-05-30T05:31:41.290Z,1005.98
2019-05-30T05:32:41.282Z,1005.97
2019-05-30T05:33:55.720Z,1005.98
2019-05-30T05:34:41.263Z,1006.03
2019-05-30T05:35:41.256Z,1006.01
2019-05-30T05:36:41.246Z,1006.04
2019-05-30T05:37:41.236Z,1006.02
2019-05-30T05:38:41.237Z,1006.06
2019-05-30T05:39:41.218Z,1006.07
2019-05-30T05:40:41.210Z,1006.10
2019-05-30T05:41:41.201Z,1006.03
2019-05-30T05:42:41.200Z,1006.04
2019-05-30T05:43:41.184Z,1006.06
2019-05-30T05:44:41.175Z,1006.05
2019-05-30T05:45:41.167Z,1006.02
2019-05-30T05:46:41.159Z,1006.07
2019-05-30T05:47:41.149Z,1006.08
2019-05-30T05:48:41.139Z,1006.06
2019-05-30T05:49:41.130Z,1006.03
2019-05-30T05:50:41.129Z,1006.11
2019-05-30T05:51:41.113Z,1006.09
2019-05-30T05:52:41.107Z,1006.07
2019-05-30T05:53:41.096Z,1006.14
2019-05-30T05:54:41.087Z,1006.10
2019-05-30T05:55:41.078Z,1006.19
2019-05-30T05:56:41.069Z,1006.16
2019-05-30T05:57:41.063Z,1006.19
2019-05-30T05:58:41.051Z,1006.21
2019-05-30T05:59:41.043Z,1006.15
2019-05-30T06:00:41.034Z,1006.17
2019-05-30T06:01:41.028Z,1006.21
2019-05-30T06:02:41.017Z,1006.05
2019-05-30T06:03:41.008Z,1006.14
2019-05-30T06:04:41.000Z,1006.17
2019-05-30T06:05:52.543Z,1006.25
2019-05-30T06:06:40.981Z,1006.27
2019-05-30T06:07:40.972Z,1006.19
2019-05-30T06:08:40.963Z,1006.21
2019-05-30T06:09:40.954Z,1006.21
2019-05-30T06:10:40.947Z,1006.29
2019-05-30T06:11:40.940Z,1006.18
2019-05-30T06:12:40.928Z,1006.17
2019-05-30T06:13:40.919Z,1006.26
2019-05-30T06:14:40.910Z,1006.26
2019-05-30T06:15:40.902Z,1006.26
2019-05-30T06:16:40.893Z,1006.29
2019-05-30T06:17:40.884Z,1006.25
2019-05-30T06:18:40.884Z,1006.21
2019-05-30T06:19:46.264Z,1006.33
2019-05-30T06:20:40.858Z,1006.28
2019-05-30T06:21:53.076Z,1006.22
2019-05-30T06:22:40.841Z,1006.26
2019-05-30T06:23:40.832Z,1006.19
2019-05-30T06:24:40.825Z,1006.26
2019-05-30T06:25:40.823Z,1006.26
2019-05-30T06:26:40.807Z,1006.33
2019-05-30T06:27:40.801Z,1006.30
2019-05-30T06:28:40.793Z,1006.32
2019-05-30T06:29:40.780Z,1006.32
2019-05-30T06:30:40.771Z,1006.30
2019-05-30T06:31:40.765Z,1006.32
2019-05-30T06:32:40.760Z,1006.33
2019-05-30T06:33:40.746Z,1006.38
2019-05-30T06:34:40.738Z,1006.32
2019-05-30T06:35:40.804Z,1006.33
2019-05-30T06:36:40.721Z,1006.33
2019-05-30T06:37:40.712Z,1006.35
2019-05-30T06:38:40.704Z,1006.32
2019-05-30T06:39:40.696Z,1006.36
2019-05-30T06:40:40.687Z,1006.39
2019-05-30T06:41:40.681Z,1006.38
2019-05-30T06:42:40.670Z,1006.38
2019-05-30T06:43:40.663Z,1006.37
2019-05-30T06:44:40.654Z,1006.44
2019-05-30T06:45:40.646Z,1006.43
2019-05-30T06:46:40.638Z,1006.45
2019-05-30T06:47:40.630Z,1006.47
2019-05-30T06:48:40.622Z,1006.44
2019-05-30T06:49:40.615Z,1006.50
2019-05-30T06:50:40.609Z,1006.48
2019-05-30T06:51:40.599Z,1006.49
2019-05-30T06:52:40.599Z,1006.44
2019-05-30T06:53:40.584Z,1006.42
2019-05-30T06:54:40.576Z,1006.51
2019-05-30T06:55:40.569Z,1006.38
2019-05-30T06:56:40.560Z,1006.47
2019-05-30T06:57:40.552Z,1006.40
2019-05-30T06:58:48.544Z,1006.43
2019-05-30T06:59:40.538Z,1006.46
2019-05-30T07:00:40.530Z,1006.50
2019-05-30T07:01:40.522Z,1006.45
2019-05-30T07:02:40.518Z,1006.49
2019-05-30T07:03:40.635Z,1006.54
2019-05-30T07:04:51.372Z,1006.51
2019-05-30T07:05:40.977Z,1006.52
2019-05-30T07:06:40.726Z,1006.51
2019-05-30T07:07:40.677Z,1006.49
2019-05-30T07:08:40.474Z,1006.52
2019-05-30T07:09:40.466Z,1006.56
2019-05-30T07:10:40.458Z,1006.61
2019-05-30T07:11:40.451Z,1006.61
2019-05-30T07:12:40.446Z,1006.58
2019-05-30T07:13:40.436Z,1006.68
2019-05-30T07:14:40.430Z,1006.62
2019-05-30T07:15:40.425Z,1006.65
2019-05-30T07:16:40.414Z,1006.68
2019-05-30T07:17:40.407Z,1006.70
2019-05-30T07:18:40.401Z,1006.66
2019-05-30T07:19:40.393Z,1006.69
2019-05-30T07:20:40.385Z,1006.72
2019-05-30T07:21:40.377Z,1006.75
2019-05-30T07:22:40.370Z,1006.73
2019-05-30T07:23:40.366Z,1006.72
2019-05-30T07:24:40.354Z,1006.72
2019-05-30T07:25:40.346Z,1006.78
2019-05-30T07:26:40.340Z,1006.79
2019-05-30T07:27:40.350Z,1006.77
2019-05-30T07:28:40.323Z,1006.71
2019-05-30T07:29:40.315Z,1006.79
2019-05-30T07:30:40.309Z,1006.80
2019-05-30T07:31:40.301Z,1006.75
2019-05-30T07:32:40.292Z,1006.77
2019-05-30T07:33:40.285Z,1006.77
2019-05-30T07:34:40.276Z,1006.84
2019-05-30T07:35:40.269Z,1006.85
2019-05-30T07:36:40.260Z,1006.88
2019-05-30T07:37:40.252Z,1006.89
2019-05-30T07:38:40.247Z,1006.86
2019-05-30T07:39:40.238Z,1006.90
2019-05-30T07:40:40.230Z,1006.87
2019-05-30T07:41:40.221Z,1006.88
2019-05-30T07:42:40.215Z,1006.86
2019-05-30T07:43:40.206Z,1006.91
2019-05-30T07:44:40.200Z,1006.93
2019-05-30T07:45:40.190Z,1006.99
2019-05-30T07:46:40.182Z,1006.95
2019-05-30T07:47:40.175Z,1006.97
2019-05-30T07:48:40.167Z,1006.95
2019-05-30T07:49:40.162Z,1006.99
2019-05-30T07:50:40.157Z,1006.99
2019-05-30T07:51:40.143Z,1007.00
2019-05-30T07:52:40.134Z,1007.00
2019-05-30T07:53:40.125Z,1007.01
2019-05-30T07:54:40.118Z,1006.98
2019-05-30T07:55:40.115Z,1007.04
2019-05-30T07:56:40.101Z,1007.05
2019-05-30T07:57:41.441Z,1007.04
2019-05-30T07:58:40.087Z,1007.05
2019-05-30T07:59:40.079Z,1007.00
2019-05-30T08:00:40.069Z,1007.05
2019-05-30T08:01:40.069Z,1007.06
2019-05-30T08:02:40.053Z,1007.06
2019-05-30T08:03:40.046Z,1007.03
2019-05-30T08:04:40.039Z,1007.06
2019-05-30T08:05:40.030Z,1007.06
2019-05-30T08:06:40.022Z,1007.02
2019-05-30T08:07:40.019Z,1006.99
2019-05-30T08:08:40.032Z,1006.99
2019-05-30T08:09:39.999Z,1006.98
2019-05-30T08:10:39.992Z,1007.03
2019-05-30T08:11:39.985Z,1007.05
2019-05-30T08:12:39.988Z,1007.01
2019-05-30T08:13:39.969Z,1006.98
2019-05-30T08:14:39.962Z,1007.04
2019-05-30T08:15:44.105Z,1006.98
2019-05-30T08:16:39.947Z,1006.98
2019-05-30T08:17:43.359Z,1007.03
2019-05-30T08:18:39.934Z,1007.04
2019-05-30T08:19:39.927Z,1007.01
2019-05-30T08:20:39.923Z,1007.02
2019-05-30T08:21:39.929Z,1007.02
2019-05-30T08:22:39.911Z,1007.00
2019-05-30T08:23:39.899Z,1007.04
2019-05-30T08:24:39.891Z,1006.99
2019-05-30T08:25:39.886Z,1007.01
2019-05-30T08:26:39.884Z,1007.03
2019-05-30T08:27:39.871Z,1007.02
2019-05-30T08:28:42.549Z,1006.94
2019-05-30T08:29:39.857Z,1006.97
2019-05-30T08:30:39.951Z,1006.99
2019-05-30T08:31:39.844Z,1007.04
2019-05-30T08:32:39.837Z,1007.03
2019-05-30T08:33:39.850Z,1007.01
2019-05-30T08:34:39.823Z,1007.00
2019-05-30T08:35:49.086Z,1007.03
2019-05-30T08:36:39.809Z,1007.00
2019-05-30T08:37:39.806Z,1006.99
2019-05-30T08:38:39.800Z,1006.96
2019-05-30T08:39:39.790Z,1007.02
2019-05-30T08:40:39.834Z,1007.01
2019-05-30T08:41:39.775Z,1006.95
2019-05-30T08:42:40.362Z,1007.06
2019-05-30T08:43:39.795Z,1006.98
2019-05-30T08:44:40.167Z,1007.02
2019-05-30T08:45:40.035Z,1007.03
2019-05-30T08:46:40.037Z,1007.00
2019-05-30T08:47:40.687Z,1007.06
2019-05-30T08:48:40.368Z,1007.04
2019-05-30T08:49:40.405Z,1007.05
2019-05-30T08:50:44.062Z,1007.02
2019-05-30T08:51:40.458Z,1007.06
2019-05-30T08:52:40.923Z,1007.03
2019-05-30T08:53:40.669Z,1007.02
2019-05-30T08:54:40.584Z,1006.99
2019-05-30T08:55:40.637Z,1006.96
2019-05-30T08:56:40.653Z,1006.99
2019-05-30T08:57:40.976Z,1006.99
2019-05-30T08:58:40.838Z,1006.95
2019-05-30T08:59:40.756Z,1006.96
2019-05-30T09:00:39.654Z,1006.94
2019-05-30T09:01:40.493Z,1007.03
2019-05-30T09:02:40.755Z,1006.96
2019-05-30T09:03:40.083Z,1006.97
2019-05-30T09:04:39.843Z,1006.93
2019-05-30T09:05:56.550Z,1006.93
2019-05-30T09:06:39.958Z,1006.95
2019-05-30T09:07:40.236Z,1007.00
2019-05-30T09:08:40.051Z,1006.99
2019-05-30T09:09:40.165Z,1006.98
2019-05-30T09:10:40.856Z,1007.01
2019-05-30T09:11:40.524Z,1007.00
2019-05-30T09:12:40.874Z,1007.01
2019-05-30T09:13:40.403Z,1007.00
2019-05-30T09:14:41.063Z,1006.99
2019-05-30T09:15:40.949Z,1007.02
2019-05-30T09:16:39.563Z,1007.01
2019-05-30T09:17:40.677Z,1007.00
2019-05-30T09:18:40.280Z,1007.00
2019-05-30T09:19:40.347Z,1007.01
2019-05-30T09:20:40.261Z,1006.98
2019-05-30T09:21:39.845Z,1007.03
2019-05-30T09:22:39.823Z,1007.04
2019-05-30T09:23:40.951Z,1007.02
2019-05-30T09:24:40.439Z,1007.06
2019-05-30T09:25:40.006Z,1007.05
2019-05-30T09:26:44.222Z,1007.06
2019-05-30T09:27:40.882Z,1007.04
2019-05-30T09:28:40.662Z,1007.09
2019-05-30T09:29:41.051Z,1007.13
2019-05-30T09:30:40.826Z,1007.11
2019-05-30T09:31:41.042Z,1007.17
2019-05-30T09:32:39.957Z,1007.22
2019-05-30T09:33:40.849Z,1007.16
2019-05-30T09:34:40.394Z,1007.14
2019-05-30T09:35:40.308Z,1007.15
2019-05-30T09:36:39.963Z,1007.17
2019-05-30T09:37:40.540Z,1007.22
2019-05-30T09:38:40.556Z,1007.20
2019-05-30T09:39:40.481Z,1007.21
2019-05-30T09:40:40.849Z,1007.18
2019-05-30T09:41:40.469Z,1007.24
2019-05-30T09:42:40.771Z,1007.27
2019-05-30T09:43:40.902Z,1007.30
2019-05-30T09:44:40.497Z,1007.33
2019-05-30T09:45:39.587Z,1007.38
2019-05-30T09:46:40.870Z,1007.34
2019-05-30T09:47:41.316Z,1007.31
2019-05-30T09:48:40.189Z,1007.39
2019-05-30T09:49:40.167Z,1007.42
2019-05-30T09:50:42.016Z,1007.37
2019-05-30T09:51:40.578Z,1007.39
2019-05-30T09:52:39.348Z,1007.40
2019-05-30T09:53:39.336Z,1007.39
2019-05-30T09:54:39.329Z,1007.41
2019-05-30T09:55:39.323Z,1007.39
2019-05-30T09:56:39.317Z,1007.38
2019-05-30T09:57:39.311Z,1007.37
2019-05-30T09:58:39.305Z,1007.36
2019-05-30T09:59:39.299Z,1007.39
2019-05-30T10:00:39.294Z,1007.32
2019-05-30T10:01:39.287Z,1007.34
2019-05-30T10:02:39.285Z,1007.41
2019-05-30T10:03:39.276Z,1007.26
2019-05-30T10:04:39.269Z,1007.35
2019-05-30T10:05:39.271Z,1007.33
2019-05-30T10:06:39.258Z,1007.32
2019-05-30T10:07:39.257Z,1007.31
2019-05-30T10:08:39.246Z,1007.29
2019-05-30T10:09:39.241Z,1007.29
2019-05-30T10:10:39.240Z,1007.25
2019-05-30T10:11:39.231Z,1007.31
2019-05-30T10:12:39.225Z,1007.31
2019-05-30T10:13:39.220Z,1007.30
2019-05-30T10:14:39.216Z,1007.30
2019-05-30T10:15:39.235Z,1007.28
2019-05-30T10:16:39.208Z,1007.32
2019-05-30T10:17:39.200Z,1007.35
2019-05-30T10:18:39.194Z,1007.34
2019-05-30T10:19:39.191Z,1007.38
2019-05-30T10:20:39.185Z,1007.38
2019-05-30T10:21:39.179Z,1007.37
2019-05-30T10:22:39.175Z,1007.33
2019-05-30T10:23:39.170Z,1007.35
2019-05-30T10:24:42.834Z,1007.36
2019-05-30T10:25:39.163Z,1007.35
2019-05-30T10:26:39.156Z,1007.35
2019-05-30T10:27:39.152Z,1007.36
2019-05-30T10:28:39.150Z,1007.35
2019-05-30T10:29:39.146Z,1007.36
2019-05-30T10:30:39.135Z,1007.34
2019-05-30T10:31:39.130Z,1007.31
2019-05-30T10:32:39.129Z,1007.33
2019-05-30T10:33:39.119Z,1007.33
2019-05-30T10:34:39.114Z,1007.35
2019-05-30T10:35:39.160Z,1007.36
2019-05-30T10:36:44.365Z,1007.35
2019-05-30T10:37:39.099Z,1007.30
2019-05-30T10:38:39.094Z,1007.39
2019-05-30T10:39:39.090Z,1007.37
2019-05-30T10:40:39.086Z,1007.40
2019-05-30T10:41:39.079Z,1007.43
2019-05-30T10:42:39.075Z,1007.40
2019-05-30T10:43:39.073Z,1007.41
2019-05-30T10:44:39.066Z,1007.43
2019-05-30T10:45:39.060Z,1007.48
2019-05-30T10:46:39.058Z,1007.45
2019-05-30T10:47:39.052Z,1007.43
2019-05-30T10:48:39.096Z,1007.46
2019-05-30T10:49:39.042Z,1007.42
2019-05-30T10:50:39.035Z,1007.40
2019-05-30T10:51:39.031Z,1007.40
2019-05-30T10:52:39.022Z,1007.40
2019-05-30T10:53:39.021Z,1007.46
2019-05-30T10:54:39.013Z,1007.46
2019-05-30T10:55:39.008Z,1007.48
2019-05-30T10:56:38.999Z,1007.46
2019-05-30T10:57:38.993Z,1007.44
2019-05-30T10:58:38.990Z,1007.44
2019-05-30T10:59:38.982Z,1007.45
2019-05-30T11:00:38.975Z,1007.45
2019-05-30T11:01:38.987Z,1007.46
2019-05-30T11:02:39.021Z,1007.51
2019-05-30T11:03:38.959Z,1007.49
2019-05-30T11:04:38.952Z,1007.55
2019-05-30T11:05:38.946Z,1007.49
2019-05-30T11:06:38.947Z,1007.50
2019-05-30T11:07:52.817Z,1007.48
2019-05-30T11:08:38.929Z,1007.53
2019-05-30T11:09:38.924Z,1007.53
2019-05-30T11:10:38.928Z,1007.52
2019-05-30T11:11:38.916Z,1007.54
2019-05-30T11:12:38.906Z,1007.54
2019-05-30T11:13:38.907Z,1007.55
2019-05-30T11:14:38.894Z,1007.51
2019-05-30T11:15:38.890Z,1007.54
2019-05-30T11:16:38.883Z,1007.49
2019-05-30T11:17:38.876Z,1007.52
2019-05-30T11:18:38.871Z,1007.49
2019-05-30T11:19:38.886Z,1007.51
2019-05-30T11:20:38.862Z,1007.52
2019-05-30T11:21:38.855Z,1007.57
2019-05-30T11:22:38.850Z,1007.58
2019-05-30T11:23:38.842Z,1007.52
2019-05-30T11:24:38.841Z,1007.53
2019-05-30T11:25:38.834Z,1007.54
2019-05-30T11:26:38.824Z,1007.49
2019-05-30T11:27:38.822Z,1007.55
2019-05-30T11:28:38.812Z,1007.53
2019-05-30T11:29:38.807Z,1007.54
2019-05-30T11:30:38.801Z,1007.59
2019-05-30T11:31:38.799Z,1007.52
2019-05-30T11:32:38.792Z,1007.53
2019-05-30T11:33:38.784Z,1007.50
2019-05-30T11:34:38.779Z,1007.52
2019-05-30T11:35:38.778Z,1007.54
2019-05-30T11:36:38.768Z,1007.50
2019-05-30T11:37:38.763Z,1007.50
2019-05-30T11:38:38.758Z,1007.49
2019-05-30T11:39:38.753Z,1007.48
2019-05-30T11:40:38.776Z,1007.48
2019-05-30T11:41:38.743Z,1007.51
2019-05-30T11:42:38.739Z,1007.61
2019-05-30T11:43:38.733Z,1007.56
2019-05-30T11:44:38.728Z,1007.58
2019-05-30T11:45:38.722Z,1007.51
2019-05-30T11:46:38.718Z,1007.56
2019-05-30T11:47:38.723Z,1007.52
2019-05-30T11:48:38.707Z,1007.62
2019-05-30T11:49:38.715Z,1007.59
2019-05-30T11:50:38.699Z,1007.55
2019-05-30T11:51:38.693Z,1007.57
2019-05-30T11:52:38.686Z,1007.59
2019-05-30T11:53:38.681Z,1007.58
2019-05-30T11:54:38.683Z,1007.65
2019-05-30T11:55:38.670Z,1007.67
2019-05-30T11:56:38.665Z,1007.63
2019-05-30T11:57:38.659Z,1007.55
2019-05-30T11:58:38.653Z,1007.64
2019-05-30T11:59:38.648Z,1007.65
2019-05-30T12:00:38.642Z,1007.69
2019-05-30T12:01:38.637Z,1007.67
2019-05-30T12:02:38.632Z,1007.63
2019-05-30T12:03:38.627Z,1007.71
2019-05-30T12:04:38.619Z,1007.70
2019-05-30T12:05:38.614Z,1007.71
2019-05-30T12:06:38.610Z,1007.78